createdAt,value
2018-02-11T00:00:17.070Z,90.81
2018-02-11T00:01:17.082Z,90.15
2018-02-11T00:02:17.094Z,90.34
2018-02-11T00:03:17.103Z,89.77
2018-02-11T00:04:17.123Z,90.25
2018-02-11T00:05:17.126Z,90.53
2018-02-11T00:06:17.138Z,90.44
2018-02-11T00:07:17.154Z,90.81
2018-02-11T00:08:17.175Z,90.63
2018-02-11T00:09:17.174Z,90.91
2018-02-11T00:10:17.197Z,90.63
2018-02-11T00:11:17.200Z,90.53
2018-02-11T00:12:17.220Z,89.87
2018-02-11T00:13:17.236Z,89.39
2018-02-11T00:14:17.235Z,89.30
2018-02-11T00:15:17.257Z,89.30
2018-02-11T00:16:17.273Z,89.63
2018-02-11T00:17:17.277Z,89.68
2018-02-11T00:18:17.301Z,89.30
2018-02-11T00:19:17.315Z,89.20
2018-02-11T00:20:17.313Z,89.68
2018-02-11T00:21:17.334Z,89.11
2018-02-11T00:22:17.341Z,89.30
2018-02-11T00:23:17.351Z,90.06
2018-02-11T00:24:17.357Z,89.58
2018-02-11T00:25:17.371Z,89.58
2018-02-11T00:26:17.385Z,89.63
2018-02-11T00:27:17.406Z,89.58
2018-02-11T00:28:17.408Z,89.20
2018-02-11T00:29:17.419Z,89.58
2018-02-11T00:30:17.433Z,89.06
2018-02-11T00:31:17.446Z,88.87
2018-02-11T00:32:17.461Z,88.26
2018-02-11T00:33:17.470Z,88.59
2018-02-11T00:34:17.481Z,88.11
2018-02-11T00:35:17.498Z,88.21
2018-02-11T00:36:17.505Z,88.40
2018-02-11T00:37:17.524Z,87.64
2018-02-11T00:38:17.534Z,87.64
2018-02-11T00:39:17.543Z,88.11
2018-02-11T00:40:17.557Z,88.49
2018-02-11T00:41:17.577Z,88.02
2018-02-11T00:42:17.577Z,87.92
2018-02-11T00:43:17.600Z,87.64
2018-02-11T00:44:17.607Z,87.73
2018-02-11T00:45:17.623Z,87.73
2018-02-11T00:46:17.629Z,87.16
2018-02-11T00:47:17.643Z,87.92
2018-02-11T00:48:17.655Z,87.73
2018-02-11T00:49:17.666Z,87.83
2018-02-11T00:50:17.678Z,88.02
2018-02-11T00:51:17.696Z,87.88
2018-02-11T00:52:17.702Z,88.21
2018-02-11T00:53:17.717Z,88.02
2018-02-11T00:54:17.729Z,88.17
2018-02-11T00:55:17.738Z,88.17
2018-02-11T00:56:17.753Z,87.83
2018-02-11T00:57:17.767Z,87.64
2018-02-11T00:58:17.776Z,87.88
2018-02-11T00:59:17.790Z,87.88
2018-02-11T01:00:17.804Z,87.59
2018-02-11T01:01:17.815Z,87.21
2018-02-11T01:02:17.837Z,87.21
2018-02-11T01:03:17.838Z,86.93
2018-02-11T01:04:17.854Z,87.12
2018-02-11T01:05:17.868Z,86.83
2018-02-11T01:06:17.877Z,87.21
2018-02-11T01:07:18.012Z,87.50
2018-02-11T01:08:17.907Z,87.21
2018-02-11T01:09:17.910Z,87.31
2018-02-11T01:10:17.925Z,86.83
2018-02-11T01:11:17.937Z,86.65
2018-02-11T01:12:17.950Z,86.55
2018-02-11T01:13:17.961Z,86.55
2018-02-11T01:14:17.971Z,87.02
2018-02-11T01:15:17.988Z,87.59
2018-02-11T01:16:17.997Z,87.40
2018-02-11T01:17:18.011Z,86.93
2018-02-11T01:18:18.022Z,86.93
2018-02-11T01:19:18.041Z,86.83
2018-02-11T01:20:18.049Z,86.46
2018-02-11T01:21:18.060Z,85.99
2018-02-11T01:22:18.070Z,86.27
2018-02-11T01:23:18.084Z,86.36
2018-02-11T01:24:18.096Z,85.89
2018-02-11T01:25:18.110Z,85.70
2018-02-11T01:26:18.120Z,85.70
2018-02-11T01:27:18.133Z,85.80
2018-02-11T01:28:18.141Z,85.89
2018-02-11T01:29:18.156Z,85.89
2018-02-11T01:30:18.170Z,86.36
2018-02-11T01:31:18.181Z,85.89
2018-02-11T01:32:18.216Z,85.42
2018-02-11T01:33:18.211Z,85.61
2018-02-11T01:34:18.218Z,85.32
2018-02-11T01:35:18.230Z,85.13
2018-02-11T01:36:18.242Z,84.75
2018-02-11T01:37:18.252Z,84.75
2018-02-11T01:38:18.265Z,84.85
2018-02-11T01:39:18.278Z,85.23
2018-02-11T01:40:18.288Z,85.13
2018-02-11T01:41:18.305Z,84.75
2018-02-11T01:42:18.311Z,85.04
2018-02-11T01:43:18.326Z,84.75
2018-02-11T01:44:18.338Z,85.04
2018-02-11T01:45:18.352Z,84.85
2018-02-11T01:46:18.357Z,84.38
2018-02-11T01:47:18.378Z,83.90
2018-02-11T01:48:18.383Z,84.09
2018-02-11T01:49:18.394Z,83.81
2018-02-11T01:50:18.412Z,83.24
2018-02-11T01:51:18.418Z,83.33
2018-02-11T01:52:18.433Z,83.33
2018-02-11T01:53:18.444Z,82.95
2018-02-11T01:54:18.467Z,83.05
2018-02-11T01:55:18.466Z,82.86
2018-02-11T01:56:18.480Z,82.95
2018-02-11T01:57:18.489Z,82.57
2018-02-11T01:58:18.501Z,82.57
2018-02-11T01:59:18.520Z,83.05
2018-02-11T02:00:18.574Z,82.57
2018-02-11T02:01:18.541Z,82.57
2018-02-11T02:02:18.551Z,82.39
2018-02-11T02:03:18.562Z,82.10
2018-02-11T02:04:18.577Z,81.92
2018-02-11T02:05:18.589Z,81.63
2018-02-11T02:06:18.600Z,81.53
2018-02-11T02:07:18.615Z,81.63
2018-02-11T02:08:18.623Z,81.72
2018-02-11T02:09:18.641Z,81.63
2018-02-11T02:10:18.646Z,81.25
2018-02-11T02:11:18.658Z,81.25
2018-02-11T02:12:18.673Z,81.15
2018-02-11T02:13:18.687Z,80.77
2018-02-11T02:14:18.696Z,81.25
2018-02-11T02:15:18.710Z,81.25
2018-02-11T02:16:18.722Z,80.87
2018-02-11T02:17:18.732Z,80.40
2018-02-11T02:18:18.743Z,81.25
2018-02-11T02:19:18.754Z,81.25
2018-02-11T02:20:18.769Z,80.58
2018-02-11T02:21:18.778Z,81.06
2018-02-11T02:22:18.793Z,80.87
2018-02-11T02:23:18.803Z,80.96
2018-02-11T02:24:18.816Z,81.06
2018-02-11T02:25:18.828Z,80.96
2018-02-11T02:26:18.840Z,80.87
2018-02-11T02:27:18.852Z,80.02
2018-02-11T02:28:18.863Z,80.30
2018-02-11T02:29:18.876Z,80.49
2018-02-11T02:30:18.888Z,80.68
2018-02-11T02:31:18.901Z,80.68
2018-02-11T02:32:18.915Z,80.58
2018-02-11T02:33:18.924Z,80.49
2018-02-11T02:34:18.935Z,80.68
2018-02-11T02:35:18.947Z,80.30
2018-02-11T02:36:18.958Z,80.30
2018-02-11T02:37:18.972Z,80.21
2018-02-11T02:38:18.986Z,79.74
2018-02-11T02:39:18.998Z,80.40
2018-02-11T02:40:19.005Z,80.11
2018-02-11T02:41:19.021Z,80.40
2018-02-11T02:42:19.034Z,80.30
2018-02-11T02:43:19.043Z,80.21
2018-02-11T02:44:19.057Z,80.02
2018-02-11T02:45:19.074Z,80.30
2018-02-11T02:46:19.076Z,80.40
2018-02-11T02:47:19.099Z,80.02
2018-02-11T02:48:19.111Z,80.11
2018-02-11T02:49:19.119Z,80.40
2018-02-11T02:50:19.145Z,80.02
2018-02-11T02:51:19.141Z,79.74
2018-02-11T02:52:19.155Z,79.55
2018-02-11T02:53:19.162Z,79.36
2018-02-11T02:54:19.176Z,79.64
2018-02-11T02:55:19.186Z,78.59
2018-02-11T02:56:19.197Z,78.69
2018-02-11T02:57:19.210Z,78.59
2018-02-11T02:58:19.223Z,78.79
2018-02-11T02:59:19.237Z,78.59
2018-02-11T03:00:19.248Z,78.88
2018-02-11T03:01:19.260Z,78.88
2018-02-11T03:02:19.267Z,78.88
2018-02-11T03:03:19.280Z,78.79
2018-02-11T03:04:19.293Z,78.79
2018-02-11T03:05:19.307Z,78.41
2018-02-11T03:06:19.321Z,78.88
2018-02-11T03:07:19.332Z,78.22
2018-02-11T03:08:19.345Z,78.69
2018-02-11T03:09:19.359Z,78.03
2018-02-11T03:10:19.367Z,78.88
2018-02-11T03:11:19.378Z,78.59
2018-02-11T03:12:19.389Z,78.41
2018-02-11T03:13:19.404Z,78.13
2018-02-11T03:14:19.414Z,78.03
2018-02-11T03:15:19.429Z,78.79
2018-02-11T03:16:19.440Z,78.13
2018-02-11T03:17:19.456Z,78.88
2018-02-11T03:18:19.462Z,78.98
2018-02-11T03:19:19.474Z,78.13
2018-02-11T03:20:19.488Z,78.50
2018-02-11T03:21:19.499Z,78.22
2018-02-11T03:22:19.511Z,77.37
2018-02-11T03:23:19.523Z,77.56
2018-02-11T03:24:19.536Z,78.03
2018-02-11T03:25:19.551Z,77.46
2018-02-11T03:26:19.559Z,78.03
2018-02-11T03:27:19.576Z,77.94
2018-02-11T03:28:19.585Z,77.75
2018-02-11T03:29:19.594Z,78.31
2018-02-11T03:30:19.610Z,78.41
2018-02-11T03:31:19.624Z,78.59
2018-02-11T03:32:19.640Z,79.07
2018-02-11T03:33:19.641Z,78.69
2018-02-11T03:34:19.651Z,78.88
2018-02-11T03:35:19.668Z,78.41
2018-02-11T03:36:19.692Z,78.31
2018-02-11T03:37:19.693Z,78.98
2018-02-11T03:38:19.711Z,78.69
2018-02-11T03:39:19.716Z,78.79
2018-02-11T03:40:19.729Z,78.98
2018-02-11T03:41:19.741Z,78.69
2018-02-11T03:42:19.750Z,78.79
2018-02-11T03:43:19.765Z,78.98
2018-02-11T03:44:19.775Z,78.59
2018-02-11T03:45:19.788Z,79.17
2018-02-11T03:46:19.795Z,78.88
2018-02-11T03:47:19.814Z,79.07
2018-02-11T03:48:19.823Z,78.88
2018-02-11T03:49:19.840Z,79.26
2018-02-11T03:50:19.847Z,79.17
2018-02-11T03:51:19.866Z,78.98
2018-02-11T03:52:19.872Z,78.88
2018-02-11T03:53:19.885Z,78.59
2018-02-11T03:54:19.937Z,78.98
2018-02-11T03:55:19.915Z,78.79
2018-02-11T03:56:19.919Z,79.55
2018-02-11T03:57:19.957Z,79.64
2018-02-11T03:58:19.941Z,79.64
2018-02-11T03:59:19.962Z,79.36
2018-02-11T04:00:19.967Z,79.45
2018-02-11T04:01:19.980Z,79.74
2018-02-11T04:02:19.988Z,80.11
2018-02-11T04:03:20.001Z,80.02
2018-02-11T04:04:20.017Z,80.11
2018-02-11T04:05:20.031Z,80.49
2018-02-11T04:06:20.035Z,80.49
2018-02-11T04:07:20.048Z,81.25
2018-02-11T04:08:20.061Z,81.92
2018-02-11T04:09:20.075Z,82.57
2018-02-11T04:10:20.086Z,83.71
2018-02-11T04:11:20.102Z,84.00
2018-02-11T04:12:20.111Z,84.28
2018-02-11T04:13:20.131Z,84.94
2018-02-11T04:14:20.136Z,84.85
2018-02-11T04:15:20.151Z,85.70
2018-02-11T04:16:20.159Z,85.23
2018-02-11T04:17:20.170Z,85.04
2018-02-11T04:18:20.178Z,85.23
2018-02-11T04:19:20.200Z,85.09
2018-02-11T04:20:20.204Z,85.23
2018-02-11T04:21:20.225Z,85.13
2018-02-11T04:22:20.226Z,84.47
2018-02-11T04:23:20.240Z,83.95
2018-02-11T04:24:20.255Z,84.47
2018-02-11T04:25:20.269Z,83.90
2018-02-11T04:26:20.272Z,83.90
2018-02-11T04:27:20.293Z,83.24
2018-02-11T04:28:20.297Z,83.33
2018-02-11T04:29:20.317Z,83.33
2018-02-11T04:30:20.327Z,82.86
2018-02-11T04:31:20.341Z,83.43
2018-02-11T04:32:20.346Z,82.95
2018-02-11T04:33:20.367Z,82.86
2018-02-11T04:34:20.369Z,83.05
2018-02-11T04:35:20.386Z,82.95
2018-02-11T04:36:20.393Z,83.43
2018-02-11T04:37:20.416Z,83.24
2018-02-11T04:38:20.418Z,83.71
2018-02-11T04:39:20.434Z,83.52
2018-02-11T04:40:20.441Z,83.33
2018-02-11T04:41:20.458Z,83.43
2018-02-11T04:42:20.463Z,83.14
2018-02-11T04:43:20.476Z,83.43
2018-02-11T04:44:20.485Z,83.24
2018-02-11T04:45:20.503Z,83.62
2018-02-11T04:46:20.506Z,83.52
2018-02-11T04:47:20.523Z,83.33
2018-02-11T04:48:20.533Z,83.24
2018-02-11T04:49:20.552Z,82.86
2018-02-11T04:50:20.561Z,82.86
2018-02-11T04:51:20.576Z,82.57
2018-02-11T04:52:20.580Z,82.57
2018-02-11T04:53:20.600Z,82.95
2018-02-11T04:54:20.601Z,82.39
2018-02-11T04:55:20.628Z,82.95
2018-02-11T04:56:20.627Z,82.95
2018-02-11T04:57:20.647Z,82.76
2018-02-11T04:58:20.655Z,83.33
2018-02-11T04:59:20.671Z,82.86
2018-02-11T05:00:20.675Z,82.95
2018-02-11T05:01:20.692Z,83.43
2018-02-11T05:02:20.699Z,83.43
2018-02-11T05:03:20.719Z,83.81
2018-02-11T05:04:20.723Z,83.81
2018-02-11T05:05:20.741Z,83.71
2018-02-11T05:06:20.744Z,83.33
2018-02-11T05:07:20.780Z,83.90
2018-02-11T05:08:20.770Z,83.90
2018-02-11T05:09:20.782Z,84.09
2018-02-11T05:10:20.803Z,84.28
2018-02-11T05:11:20.804Z,83.81
2018-02-11T05:12:20.817Z,84.28
2018-02-11T05:13:20.836Z,84.28
2018-02-11T05:14:20.838Z,84.94
2018-02-11T05:15:20.853Z,84.66
2018-02-11T05:16:20.866Z,84.85
2018-02-11T05:17:20.879Z,84.85
2018-02-11T05:18:20.891Z,85.04
2018-02-11T05:19:20.906Z,84.85
2018-02-11T05:20:20.910Z,84.94
2018-02-11T05:21:20.932Z,85.13
2018-02-11T05:22:20.939Z,84.75
2018-02-11T05:23:20.956Z,85.61
2018-02-11T05:24:20.974Z,86.18
2018-02-11T05:25:20.982Z,86.36
2018-02-11T05:26:20.982Z,86.18
2018-02-11T05:27:21.000Z,86.18
2018-02-11T05:28:21.008Z,86.65
2018-02-11T05:29:21.024Z,87.31
2018-02-11T05:30:21.031Z,87.78
2018-02-11T05:31:21.049Z,88.17
2018-02-11T05:32:21.055Z,88.35
2018-02-11T05:33:21.066Z,88.26
2018-02-11T05:34:21.075Z,89.01
2018-02-11T05:35:21.094Z,89.73
2018-02-11T05:36:21.103Z,90.01
2018-02-11T05:37:21.116Z,89.20
2018-02-11T05:38:21.124Z,89.49
2018-02-11T05:39:21.142Z,89.30
2018-02-11T05:40:21.152Z,89.39
2018-02-11T05:41:21.162Z,89.01
2018-02-11T05:42:21.171Z,89.58
2018-02-11T05:43:21.195Z,89.20
2018-02-11T05:44:21.201Z,89.30
2018-02-11T05:45:21.210Z,89.20
2018-02-11T05:46:21.220Z,89.30
2018-02-11T05:47:21.233Z,89.54
2018-02-11T05:48:21.248Z,90.11
2018-02-11T05:49:21.262Z,89.87
2018-02-11T05:50:21.343Z,89.49
2018-02-11T05:51:21.281Z,89.54
2018-02-11T05:52:21.295Z,89.58
2018-02-11T05:53:21.303Z,89.11
2018-02-11T05:54:21.335Z,88.92
2018-02-11T05:55:21.329Z,88.64
2018-02-11T05:56:21.337Z,88.26
2018-02-11T05:57:21.391Z,88.35
2018-02-11T05:58:21.363Z,88.54
2018-02-11T05:59:21.374Z,88.45
2018-02-11T06:00:21.387Z,87.69
2018-02-11T06:01:21.401Z,87.50
2018-02-11T06:02:21.410Z,87.78
2018-02-11T06:03:21.422Z,87.59
2018-02-11T06:04:21.433Z,87.88
2018-02-11T06:05:21.452Z,87.78
2018-02-11T06:06:21.458Z,87.50
2018-02-11T06:07:21.468Z,87.78
2018-02-11T06:08:21.480Z,87.50
2018-02-11T06:09:21.492Z,86.74
2018-02-11T06:10:21.505Z,86.83
2018-02-11T06:11:21.519Z,87.02
2018-02-11T06:12:21.529Z,86.93
2018-02-11T06:13:21.546Z,86.74
2018-02-11T06:14:21.553Z,86.55
2018-02-11T06:15:21.563Z,86.74
2018-02-11T06:16:21.575Z,87.12
2018-02-11T06:17:21.590Z,86.83
2018-02-11T06:18:21.605Z,86.83
2018-02-11T06:19:21.616Z,86.65
2018-02-11T06:20:21.629Z,87.02
2018-02-11T06:21:21.638Z,86.18
2018-02-11T06:22:21.646Z,85.99
2018-02-11T06:23:21.661Z,85.89
2018-02-11T06:24:21.672Z,86.08
2018-02-11T06:25:21.682Z,86.36
2018-02-11T06:26:21.700Z,86.27
2018-02-11T06:27:21.709Z,86.27
2018-02-11T06:28:21.720Z,86.46
2018-02-11T06:29:21.775Z,86.55
2018-02-11T06:30:21.741Z,87.21
2018-02-11T06:31:21.756Z,86.83
2018-02-11T06:32:21.776Z,87.12
2018-02-11T06:33:21.777Z,87.40
2018-02-11T06:34:21.788Z,87.98
2018-02-11T06:35:21.802Z,87.59
2018-02-11T06:36:21.820Z,88.17
2018-02-11T06:37:21.830Z,88.07
2018-02-11T06:38:21.844Z,88.82
2018-02-11T06:39:21.852Z,88.92
2018-02-11T06:40:21.878Z,89.49
2018-02-11T06:41:21.874Z,89.39
2018-02-11T06:42:21.889Z,89.68
2018-02-11T06:43:21.901Z,89.87
2018-02-11T06:44:21.914Z,89.96
2018-02-11T06:45:21.922Z,90.06
2018-02-11T06:46:21.932Z,90.44
2018-02-11T06:47:21.943Z,89.96
2018-02-11T06:48:21.961Z,89.68
2018-02-11T06:49:21.974Z,89.30
2018-02-11T06:50:21.988Z,89.49
2018-02-11T06:51:21.992Z,89.49
2018-02-11T06:52:22.003Z,89.39
2018-02-11T06:53:22.028Z,89.49
2018-02-11T06:54:22.049Z,89.58
2018-02-11T06:55:22.102Z,89.49
2018-02-11T06:56:22.053Z,89.58
2018-02-11T06:57:22.061Z,89.87
2018-02-11T06:58:22.079Z,90.25
2018-02-11T06:59:22.086Z,90.53
2018-02-11T07:00:22.121Z,90.53
2018-02-11T07:01:22.117Z,90.34
2018-02-11T07:02:22.131Z,90.25
2018-02-11T07:03:22.137Z,90.25
2018-02-11T07:04:22.153Z,90.63
2018-02-11T07:05:22.156Z,91.76
2018-02-11T07:06:22.171Z,91.67
2018-02-11T07:07:22.180Z,91.19
2018-02-11T07:08:22.255Z,92.14
2018-02-11T07:09:22.205Z,92.14
2018-02-11T07:10:22.217Z,91.91
2018-02-11T07:11:22.232Z,92.14
2018-02-11T07:12:22.240Z,92.24
2018-02-11T07:13:22.254Z,92.90
2018-02-11T07:14:22.325Z,92.99
2018-02-11T07:15:22.288Z,93.08
2018-02-11T07:16:22.295Z,92.43
2018-02-11T07:17:22.480Z,92.14
2018-02-11T07:18:22.321Z,92.05
2018-02-11T07:19:22.326Z,92.14
2018-02-11T07:20:22.342Z,92.43
2018-02-11T07:21:22.351Z,91.67
2018-02-11T07:22:22.359Z,91.95
2018-02-11T07:23:22.377Z,92.10
2018-02-11T07:24:22.390Z,93.08
2018-02-11T07:25:22.411Z,92.24
2018-02-11T07:26:22.444Z,92.24
2018-02-11T07:27:22.421Z,92.14
2018-02-11T07:28:22.435Z,92.24
2018-02-11T07:29:22.448Z,91.95
2018-02-11T07:30:22.454Z,91.57
2018-02-11T07:31:22.475Z,91.95
2018-02-11T07:32:22.478Z,92.24
2018-02-11T07:33:22.490Z,92.24
2018-02-11T07:34:22.503Z,92.24
2018-02-11T07:35:22.514Z,91.57
2018-02-11T07:36:22.561Z,91.67
2018-02-11T07:37:22.540Z,92.43
2018-02-11T07:38:22.549Z,92.24
2018-02-11T07:39:22.561Z,92.05
2018-02-11T07:40:22.579Z,92.24
2018-02-11T07:41:22.587Z,92.71
2018-02-11T07:42:22.599Z,92.52
2018-02-11T07:43:22.617Z,92.90
2018-02-11T07:44:22.622Z,92.52
2018-02-11T07:45:22.644Z,92.90
2018-02-11T07:46:22.643Z,93.08
2018-02-11T07:47:22.664Z,93.37
2018-02-11T07:48:22.676Z,93.46
2018-02-11T07:49:22.685Z,93.84
2018-02-11T07:50:22.694Z,93.75
2018-02-11T07:51:22.706Z,93.56
2018-02-11T07:52:22.720Z,92.99
2018-02-11T07:53:22.731Z,92.99
2018-02-11T07:54:22.741Z,92.71
2018-02-11T07:55:22.758Z,92.90
2018-02-11T07:56:22.772Z,92.90
2018-02-11T07:57:22.834Z,93.08
2018-02-11T07:58:22.833Z,93.65
2018-02-11T07:59:22.804Z,93.46
2018-02-11T08:00:22.845Z,93.65
2018-02-11T08:01:22.828Z,93.18
2018-02-11T08:02:22.885Z,93.46
2018-02-11T08:03:22.847Z,93.99
2018-02-11T08:04:22.863Z,94.70
2018-02-11T08:05:22.873Z,94.46
2018-02-11T08:06:22.881Z,94.79
2018-02-11T08:07:22.927Z,94.60
2018-02-11T08:08:22.907Z,94.42
2018-02-11T08:09:22.942Z,94.60
2018-02-11T08:10:22.937Z,93.94
2018-02-11T08:11:22.951Z,93.94
2018-02-11T08:12:22.969Z,94.04
2018-02-11T08:13:22.970Z,93.84
2018-02-11T08:14:22.980Z,93.46
2018-02-11T08:15:22.995Z,92.90
2018-02-11T08:16:23.001Z,92.61
2018-02-11T08:17:23.016Z,92.05
2018-02-11T08:18:23.028Z,92.24
2018-02-11T08:19:23.056Z,92.33
2018-02-11T08:20:23.066Z,92.33
2018-02-11T08:21:23.085Z,92.43
2018-02-11T08:22:23.077Z,92.61
2018-02-11T08:23:23.092Z,92.43
2018-02-11T08:24:23.100Z,91.86
2018-02-11T08:25:23.109Z,91.48
2018-02-11T08:26:23.123Z,91.86
2018-02-11T08:27:23.137Z,91.81
2018-02-11T08:28:23.159Z,91.71
2018-02-11T08:29:23.177Z,90.86
2018-02-11T08:30:23.173Z,90.58
2018-02-11T08:31:23.197Z,89.63
2018-02-11T08:32:23.199Z,89.63
2018-02-11T08:33:23.213Z,89.91
2018-02-11T08:34:23.222Z,89.72
2018-02-11T08:35:23.237Z,88.49
2018-02-11T08:36:23.249Z,88.87
2018-02-11T08:37:23.261Z,88.11
2018-02-11T08:38:23.274Z,88.40
2018-02-11T08:39:23.286Z,87.92
2018-02-11T08:40:23.298Z,88.68
2018-02-11T08:41:23.317Z,88.21
2018-02-11T08:42:23.323Z,88.06
2018-02-11T08:43:23.341Z,87.83
2018-02-11T08:44:23.349Z,87.87
2018-02-11T08:45:23.362Z,87.12
2018-02-11T08:46:23.376Z,87.45
2018-02-11T08:47:23.391Z,87.83
2018-02-11T08:48:23.403Z,87.73
2018-02-11T08:49:23.436Z,87.73
2018-02-11T08:50:23.429Z,88.02
2018-02-11T08:51:23.445Z,87.92
2018-02-11T08:52:23.455Z,87.83
2018-02-11T08:53:23.469Z,88.30
2018-02-11T08:54:23.489Z,87.87
2018-02-11T08:55:23.497Z,88.30
2018-02-11T08:56:23.502Z,88.11
2018-02-11T08:57:23.518Z,88.59
2018-02-11T08:58:23.533Z,88.25
2018-02-11T08:59:23.539Z,88.16
2018-02-11T09:00:23.556Z,87.77
2018-02-11T09:01:23.570Z,87.73
2018-02-11T09:02:23.592Z,87.45
2018-02-11T09:03:23.594Z,88.21
2018-02-11T09:04:23.615Z,88.40
2018-02-11T09:05:23.622Z,88.49
2018-02-11T09:06:23.655Z,87.77
2018-02-11T09:07:23.679Z,86.83
2018-02-11T09:08:23.660Z,86.93
2018-02-11T09:09:23.678Z,86.07
2018-02-11T09:10:23.686Z,86.64
2018-02-11T09:11:23.696Z,86.64
2018-02-11T09:12:23.709Z,86.98
2018-02-11T09:13:23.729Z,86.45
2018-02-11T09:14:23.736Z,86.16
2018-02-11T09:15:23.761Z,86.45
2018-02-11T09:16:23.760Z,86.55
2018-02-11T09:17:23.774Z,85.78
2018-02-11T09:18:23.786Z,85.31
2018-02-11T09:19:23.803Z,85.31
2018-02-11T09:20:23.815Z,84.55
2018-02-11T09:21:23.833Z,84.46
2018-02-11T09:22:23.842Z,84.36
2018-02-11T09:23:23.854Z,85.65
2018-02-11T09:24:23.866Z,85.41
2018-02-11T09:25:23.883Z,84.55
2018-02-11T09:26:23.906Z,84.36
2018-02-11T09:27:23.950Z,83.70
2018-02-11T09:28:23.920Z,83.46
2018-02-11T09:29:23.937Z,83.08
2018-02-11T09:30:23.950Z,82.51
2018-02-11T09:31:23.962Z,82.47
2018-02-11T09:32:24.014Z,82.47
2018-02-11T09:33:23.988Z,82.85
2018-02-11T09:34:24.000Z,82.79
2018-02-11T09:35:24.014Z,82.60
2018-02-11T09:36:24.025Z,82.79
2018-02-11T09:37:24.044Z,82.79
2018-02-11T09:38:24.063Z,82.51
2018-02-11T09:39:24.071Z,83.04
2018-02-11T09:40:24.084Z,83.42
2018-02-11T09:41:24.093Z,83.13
2018-02-11T09:42:24.111Z,83.65
2018-02-11T09:43:24.120Z,83.65
2018-02-11T09:44:24.148Z,82.79
2018-02-11T09:45:24.157Z,82.60
2018-02-11T09:46:24.184Z,81.75
2018-02-11T09:47:24.174Z,81.66
2018-02-11T09:48:24.203Z,81.94
2018-02-11T09:49:24.232Z,82.51
2018-02-11T09:50:24.219Z,82.70
2018-02-11T09:51:24.232Z,82.60
2018-02-11T09:52:24.246Z,82.51
2018-02-11T09:53:24.259Z,83.04
2018-02-11T09:54:24.274Z,83.55
2018-02-11T09:55:24.289Z,83.84
2018-02-11T09:56:24.303Z,83.36
2018-02-11T09:57:24.318Z,82.89
2018-02-11T09:58:24.329Z,83.42
2018-02-11T09:59:24.348Z,83.61
2018-02-11T10:00:24.357Z,83.61
2018-02-11T10:01:24.371Z,83.89
2018-02-11T10:02:24.386Z,83.98
2018-02-11T10:03:24.397Z,84.55
2018-02-11T10:04:24.413Z,84.55
2018-02-11T10:05:24.428Z,84.74
2018-02-11T10:06:24.441Z,84.50
2018-02-11T10:07:24.462Z,83.84
2018-02-11T10:08:24.468Z,82.89
2018-02-11T10:09:24.490Z,83.55
2018-02-11T10:10:24.497Z,83.42
2018-02-11T10:11:24.512Z,83.55
2018-02-11T10:12:24.521Z,82.70
2018-02-11T10:13:24.551Z,81.66
2018-02-11T10:14:24.550Z,81.47
2018-02-11T10:15:24.567Z,82.70
2018-02-11T10:16:24.579Z,83.08
2018-02-11T10:17:24.592Z,83.42
2018-02-11T10:18:24.608Z,83.70
2018-02-11T10:19:24.618Z,84.55
2018-02-11T10:20:24.632Z,84.84
2018-02-11T10:21:24.642Z,85.41
2018-02-11T10:22:24.657Z,85.22
2018-02-11T10:23:24.670Z,85.31
2018-02-11T10:24:24.697Z,85.50
2018-02-11T10:25:24.715Z,85.13
2018-02-11T10:26:24.713Z,85.31
2018-02-11T10:27:24.733Z,84.46
2018-02-11T10:28:24.749Z,84.69
2018-02-11T10:29:24.753Z,85.13
2018-02-11T10:30:24.774Z,85.41
2018-02-11T10:31:24.780Z,84.94
2018-02-11T10:32:24.798Z,85.03
2018-02-11T10:33:24.807Z,85.60
2018-02-11T10:34:24.820Z,85.13
2018-02-11T10:35:24.834Z,85.50
2018-02-11T10:36:24.849Z,85.88
2018-02-11T10:37:24.866Z,85.50
2018-02-11T10:38:24.876Z,85.55
2018-02-11T10:39:24.891Z,85.97
2018-02-11T10:40:24.907Z,86.45
2018-02-11T10:41:24.916Z,85.41
2018-02-11T10:42:24.934Z,85.13
2018-02-11T10:43:24.952Z,85.03
2018-02-11T10:44:24.955Z,85.41
2018-02-11T10:45:24.971Z,86.35
2018-02-11T10:46:24.984Z,86.74
2018-02-11T10:47:24.996Z,87.30
2018-02-11T10:48:25.010Z,87.21
2018-02-11T10:49:25.025Z,87.02
2018-02-11T10:50:25.070Z,86.26
2018-02-11T10:51:25.301Z,85.69
2018-02-11T10:52:25.068Z,85.41
2018-02-11T10:53:25.076Z,85.78
2018-02-11T10:54:25.116Z,85.13
2018-02-11T10:55:25.103Z,85.22
2018-02-11T10:56:25.114Z,85.13
2018-02-11T10:57:25.129Z,85.13
2018-02-11T10:58:25.145Z,85.13
2018-02-11T10:59:25.158Z,85.50
2018-02-11T11:00:25.171Z,84.84
2018-02-11T11:01:25.197Z,85.22
2018-02-11T11:02:25.195Z,85.31
2018-02-11T11:03:25.207Z,85.31
2018-02-11T11:04:25.225Z,85.41
2018-02-11T11:05:25.237Z,85.31
2018-02-11T11:06:25.248Z,85.22
2018-02-11T11:07:25.261Z,85.50
2018-02-11T11:08:25.276Z,85.88
2018-02-11T11:09:25.288Z,85.41
2018-02-11T11:10:25.302Z,85.41
2018-02-11T11:11:25.317Z,85.41
2018-02-11T11:12:25.331Z,85.69
2018-02-11T11:13:25.340Z,86.55
2018-02-11T11:14:25.355Z,85.97
2018-02-11T11:15:25.372Z,85.31
2018-02-11T11:16:25.380Z,85.03
2018-02-11T11:17:25.404Z,85.13
2018-02-11T11:18:25.410Z,85.50
2018-02-11T11:19:25.429Z,85.69
2018-02-11T11:20:25.432Z,85.69
2018-02-11T11:21:25.456Z,85.13
2018-02-11T11:22:25.460Z,84.84
2018-02-11T11:23:25.473Z,84.94
2018-02-11T11:24:25.487Z,84.31
2018-02-11T11:25:25.501Z,84.55
2018-02-11T11:26:25.513Z,84.41
2018-02-11T11:27:25.529Z,84.03
2018-02-11T11:28:25.539Z,84.31
2018-02-11T11:29:25.567Z,84.50
2018-02-11T11:30:25.567Z,84.27
2018-02-11T11:31:25.609Z,85.13
2018-02-11T11:32:25.599Z,85.03
2018-02-11T11:33:25.607Z,85.88
2018-02-11T11:34:25.621Z,84.94
2018-02-11T11:35:25.637Z,84.84
2018-02-11T11:36:25.650Z,84.84
2018-02-11T11:37:25.661Z,84.94
2018-02-11T11:38:25.676Z,85.41
2018-02-11T11:39:25.689Z,84.78
2018-02-11T11:40:25.700Z,84.59
2018-02-11T11:41:25.713Z,84.41
2018-02-11T11:42:25.729Z,84.03
2018-02-11T11:43:25.742Z,84.12
2018-02-11T11:44:25.822Z,84.22
2018-02-11T11:45:25.771Z,84.31
2018-02-11T11:46:25.785Z,84.50
2018-02-11T11:47:25.795Z,84.41
2018-02-11T11:48:25.807Z,84.69
2018-02-11T11:49:25.826Z,84.59
2018-02-11T11:50:25.835Z,84.03
2018-02-11T11:51:25.848Z,84.22
2018-02-11T11:52:25.895Z,85.22
2018-02-11T11:53:25.877Z,84.98
2018-02-11T11:54:25.893Z,85.22
2018-02-11T11:55:25.982Z,86.16
2018-02-11T11:56:25.926Z,87.02
2018-02-11T11:57:25.938Z,86.35
2018-02-11T11:58:25.946Z,85.69
2018-02-11T11:59:25.968Z,85.22
2018-02-11T12:00:25.973Z,85.55
2018-02-11T12:01:25.987Z,84.94
2018-02-11T12:02:26.001Z,85.17
2018-02-11T12:03:26.013Z,85.03
2018-02-11T12:04:26.026Z,85.36
2018-02-11T12:05:26.055Z,85.26
2018-02-11T12:06:26.055Z,84.98
2018-02-11T12:07:26.069Z,84.98
2018-02-11T12:08:26.083Z,85.26
2018-02-11T12:09:26.098Z,85.36
2018-02-11T12:10:26.114Z,85.36
2018-02-11T12:11:26.122Z,84.88
2018-02-11T12:12:26.136Z,85.07
2018-02-11T12:13:26.150Z,84.98
2018-02-11T12:14:26.163Z,84.22
2018-02-11T12:15:26.179Z,84.50
2018-02-11T12:16:26.191Z,84.03
2018-02-11T12:17:26.210Z,84.22
2018-02-11T12:18:26.229Z,83.65
2018-02-11T12:19:26.231Z,83.84
2018-02-11T12:20:26.246Z,84.50
2018-02-11T12:21:26.258Z,84.69
2018-02-11T12:22:26.274Z,84.88
2018-02-11T12:23:26.300Z,84.03
2018-02-11T12:24:26.299Z,84.12
2018-02-11T12:25:26.316Z,84.12
2018-02-11T12:26:26.328Z,83.69
2018-02-11T12:27:26.343Z,83.46
2018-02-11T12:28:26.356Z,83.59
2018-02-11T12:29:26.372Z,83.22
2018-02-11T12:30:26.381Z,82.74
2018-02-11T12:31:26.396Z,82.93
2018-02-11T12:32:26.413Z,82.93
2018-02-11T12:33:26.428Z,83.03
2018-02-11T12:34:26.446Z,83.46
2018-02-11T12:35:26.453Z,83.97
2018-02-11T12:36:26.468Z,83.69
2018-02-11T12:37:26.482Z,83.50
2018-02-11T12:38:26.501Z,83.46
2018-02-11T12:39:26.552Z,83.36
2018-02-11T12:40:26.522Z,83.94
2018-02-11T12:41:26.536Z,84.36
2018-02-11T12:42:26.571Z,83.69
2018-02-11T12:43:26.566Z,83.12
2018-02-11T12:44:26.576Z,83.03
2018-02-11T12:45:26.597Z,82.65
2018-02-11T12:46:26.612Z,82.65
2018-02-11T12:47:26.623Z,82.60
2018-02-11T12:48:26.637Z,83.69
2018-02-11T12:49:26.656Z,83.31
2018-02-11T12:50:26.669Z,83.59
2018-02-11T12:51:26.677Z,83.40
2018-02-11T12:52:26.694Z,83.69